createdAt,value
2018-10-15T00:00:58.517Z,4.00
2018-10-15T00:01:58.496Z,4.00
2018-10-15T00:02:58.471Z,4.00
2018-10-15T00:03:58.448Z,4.00
2018-10-15T00:04:58.426Z,4.00
2018-10-15T00:05:58.404Z,4.00
2018-10-15T00:06:58.380Z,4.00
2018-10-15T00:07:58.357Z,4.00
2018-10-15T00:08:58.337Z,4.00
2018-10-15T00:09:58.311Z,4.00
2018-10-15T00:10:58.286Z,4.00
2018-10-15T00:11:58.263Z,4.00
2018-10-15T00:12:58.240Z,4.00
2018-10-15T00:13:58.218Z,4.00
2018-10-15T00:14:58.194Z,4.00
2018-10-15T00:15:58.170Z,4.00
2018-10-15T00:16:58.146Z,4.00
2018-10-15T00:17:58.124Z,4.00
2018-10-15T00:18:58.102Z,4.00
2018-10-15T00:19:58.077Z,4.00
2018-10-15T00:20:58.058Z,4.00
2018-10-15T00:21:58.032Z,4.00
2018-10-15T00:22:58.010Z,4.00
2018-10-15T00:23:57.985Z,4.00
2018-10-15T00:24:57.963Z,4.00
2018-10-15T00:25:57.940Z,4.00
2018-10-15T00:26:57.917Z,4.00
2018-10-15T00:27:57.893Z,4.00
2018-10-15T00:28:57.870Z,4.00
2018-10-15T00:29:57.848Z,4.00
2018-10-15T00:30:57.825Z,4.00
2018-10-15T00:31:57.801Z,4.00
2018-10-15T00:32:57.777Z,4.00
2018-10-15T00:33:57.754Z,4.00
2018-10-15T00:34:57.732Z,4.00
2018-10-15T00:35:58.460Z,4.00
2018-10-15T00:36:57.684Z,4.00
2018-10-15T00:37:57.661Z,4.00
2018-10-15T00:38:57.638Z,4.00
2018-10-15T00:39:57.614Z,4.00
2018-10-15T00:40:57.591Z,4.00
2018-10-15T00:41:57.568Z,4.00
2018-10-15T00:42:57.545Z,4.00
2018-10-15T00:43:57.521Z,4.00
2018-10-15T00:44:57.498Z,4.00
2018-10-15T00:45:57.480Z,4.00
2018-10-15T00:46:57.452Z,4.00
2018-10-15T00:47:57.428Z,4.00
2018-10-15T00:48:57.406Z,4.00
2018-10-15T00:49:57.382Z,4.00
2018-10-15T00:50:57.359Z,4.00
2018-10-15T00:51:57.335Z,4.00
2018-10-15T00:52:57.312Z,4.00
2018-10-15T00:53:57.294Z,4.00
2018-10-15T00:54:57.266Z,4.00
2018-10-15T00:55:57.242Z,4.00
2018-10-15T00:56:57.319Z,4.00
2018-10-15T00:57:57.195Z,4.00
2018-10-15T00:58:57.174Z,4.00
2018-10-15T00:59:57.149Z,4.00
2018-10-15T01:00:57.126Z,4.00
2018-10-15T01:01:57.104Z,4.00
2018-10-15T01:02:57.081Z,4.00
2018-10-15T01:03:57.262Z,4.00
2018-10-15T01:04:57.033Z,4.00
2018-10-15T01:05:57.011Z,4.00
2018-10-15T01:06:56.987Z,4.00
2018-10-15T01:07:56.964Z,4.00
2018-10-15T01:08:56.940Z,4.00
2018-10-15T01:09:56.918Z,4.00
2018-10-15T01:10:56.895Z,4.00
2018-10-15T01:11:56.870Z,4.00
2018-10-15T01:12:56.850Z,4.00
2018-10-15T01:13:56.824Z,4.00
2018-10-15T01:14:56.800Z,4.00
2018-10-15T01:15:56.776Z,4.00
2018-10-15T01:16:56.754Z,4.00
2018-10-15T01:17:56.732Z,4.00
2018-10-15T01:18:56.714Z,4.00
2018-10-15T01:19:56.686Z,4.00
2018-10-15T01:20:56.661Z,4.00
2018-10-15T01:21:56.638Z,4.00
2018-10-15T01:22:56.614Z,4.00
2018-10-15T01:23:56.591Z,4.00
2018-10-15T01:24:56.566Z,4.00
2018-10-15T01:25:56.543Z,4.00
2018-10-15T01:26:56.521Z,4.00
2018-10-15T01:27:56.496Z,4.00
2018-10-15T01:28:56.473Z,4.00
2018-10-15T01:29:56.451Z,4.00
2018-10-15T01:30:56.426Z,4.00
2018-10-15T01:31:56.402Z,4.00
2018-10-15T01:32:56.388Z,4.00
2018-10-15T01:33:56.358Z,4.00
2018-10-15T01:34:56.333Z,4.00
2018-10-15T01:35:56.311Z,4.00
2018-10-15T01:36:56.285Z,4.00
2018-10-15T01:37:56.263Z,4.00
2018-10-15T01:38:56.239Z,4.00
2018-10-15T01:39:56.215Z,4.00
2018-10-15T01:40:56.943Z,4.00
2018-10-15T01:41:56.173Z,4.00
2018-10-15T01:42:56.147Z,4.00
2018-10-15T01:43:56.122Z,4.00
2018-10-15T01:44:56.101Z,4.00
2018-10-15T01:45:56.075Z,4.00
2018-10-15T01:46:56.054Z,4.00
2018-10-15T01:47:56.030Z,4.00
2018-10-15T01:48:56.006Z,4.00
2018-10-15T01:49:55.982Z,4.00
2018-10-15T01:50:55.958Z,4.00
2018-10-15T01:51:55.935Z,4.00
2018-10-15T01:52:55.912Z,4.00
2018-10-15T01:53:55.891Z,4.00
2018-10-15T01:54:55.865Z,4.00
2018-10-15T01:55:55.842Z,4.00
2018-10-15T01:56:55.818Z,4.00
2018-10-15T01:57:55.796Z,4.00
2018-10-15T01:58:55.772Z,4.00
2018-10-15T01:59:55.747Z,4.00
2018-10-15T02:00:55.724Z,4.00
2018-10-15T02:01:55.701Z,4.00
2018-10-15T02:02:55.679Z,4.00
2018-10-15T02:03:55.654Z,4.00
2018-10-15T02:04:55.630Z,4.00
2018-10-15T02:05:55.608Z,4.00
2018-10-15T02:06:55.583Z,4.00
2018-10-15T02:07:55.559Z,4.00
2018-10-15T02:08:55.536Z,4.00
2018-10-15T02:09:55.513Z,4.00
2018-10-15T02:10:55.489Z,4.00
2018-10-15T02:11:55.465Z,4.00
2018-10-15T02:12:55.442Z,4.00
2018-10-15T02:13:55.418Z,4.00
2018-10-15T02:14:55.395Z,4.00
2018-10-15T02:15:55.371Z,4.00
2018-10-15T02:16:55.351Z,4.00
2018-10-15T02:17:55.324Z,4.00
2018-10-15T02:18:55.301Z,4.00
2018-10-15T02:19:55.278Z,4.00
2018-10-15T02:20:55.254Z,4.00
2018-10-15T02:21:55.230Z,4.00
2018-10-15T02:22:55.208Z,4.00
2018-10-15T02:23:55.187Z,4.00
2018-10-15T02:24:55.160Z,4.00
2018-10-15T02:25:55.136Z,4.00
2018-10-15T02:26:55.112Z,4.00
2018-10-15T02:27:55.089Z,4.00
2018-10-15T02:28:55.067Z,4.00
2018-10-15T02:29:55.043Z,4.00
2018-10-15T02:30:55.020Z,4.00
2018-10-15T02:31:54.995Z,4.00
2018-10-15T02:32:54.970Z,4.00
2018-10-15T02:33:54.947Z,4.00
2018-10-15T02:34:54.925Z,4.00
2018-10-15T02:35:54.900Z,4.00
2018-10-15T02:36:54.877Z,4.00
2018-10-15T02:37:54.853Z,4.00
2018-10-15T02:38:54.835Z,4.00
2018-10-15T02:39:54.805Z,4.00
2018-10-15T02:40:54.781Z,4.00
2018-10-15T02:41:54.760Z,4.00
2018-10-15T02:42:54.736Z,4.00
2018-10-15T02:43:54.710Z,4.00
2018-10-15T02:44:54.687Z,4.00
2018-10-15T02:45:54.663Z,4.00
2018-10-15T02:46:54.640Z,4.00
2018-10-15T02:47:54.616Z,4.00
2018-10-15T02:48:54.593Z,4.00
2018-10-15T02:49:54.569Z,4.00
2018-10-15T02:50:54.545Z,4.00
2018-10-15T02:51:54.521Z,4.00
2018-10-15T02:52:54.497Z,4.00
2018-10-15T02:53:54.474Z,4.00
2018-10-15T02:54:54.451Z,4.00
2018-10-15T02:55:54.426Z,4.00
2018-10-15T02:56:54.403Z,4.00
2018-10-15T02:57:54.379Z,4.00
2018-10-15T02:58:54.356Z,4.00
2018-10-15T02:59:54.331Z,4.00
2018-10-15T03:00:54.308Z,4.00
2018-10-15T03:01:54.287Z,4.00
2018-10-15T03:02:54.260Z,4.00
2018-10-15T03:03:54.239Z,4.00
2018-10-15T03:04:54.212Z,4.00
2018-10-15T03:05:54.939Z,4.00
2018-10-15T03:06:54.165Z,4.00
2018-10-15T03:07:54.141Z,4.00
2018-10-15T03:08:54.117Z,4.00
2018-10-15T03:09:54.093Z,4.00
2018-10-15T03:10:54.071Z,4.00
2018-10-15T03:11:54.046Z,4.00
2018-10-15T03:12:54.029Z,4.00
2018-10-15T03:13:53.999Z,4.00
2018-10-15T03:14:53.976Z,4.00
2018-10-15T03:15:53.950Z,4.00
2018-10-15T03:16:53.926Z,4.00
2018-10-15T03:17:53.902Z,4.00
2018-10-15T03:18:53.882Z,4.00
2018-10-15T03:19:53.873Z,4.00
2018-10-15T03:20:53.830Z,4.00
2018-10-15T03:21:53.808Z,4.00
2018-10-15T03:22:53.788Z,4.00
2018-10-15T03:23:53.759Z,4.00
2018-10-15T03:24:53.735Z,4.00
2018-10-15T03:25:53.713Z,4.00
2018-10-15T03:26:53.689Z,4.00
2018-10-15T03:27:53.664Z,4.00
2018-10-15T03:28:53.643Z,4.00
2018-10-15T03:29:53.617Z,4.00
2018-10-15T03:30:53.594Z,4.00
2018-10-15T03:31:53.570Z,4.00
2018-10-15T03:32:54.297Z,4.00
2018-10-15T03:33:53.523Z,4.00
2018-10-15T03:34:53.499Z,4.00
2018-10-15T03:35:53.475Z,4.00
2018-10-15T03:36:53.450Z,4.00
2018-10-15T03:37:53.427Z,4.00
2018-10-15T03:38:53.403Z,4.00
2018-10-15T03:39:53.378Z,4.00
2018-10-15T03:40:53.354Z,4.00
2018-10-15T03:41:53.331Z,4.00
2018-10-15T03:42:53.307Z,4.00
2018-10-15T03:43:53.283Z,4.00
2018-10-15T03:44:53.259Z,4.00
2018-10-15T03:45:53.235Z,4.00
2018-10-15T03:46:53.211Z,4.00
2018-10-15T03:47:53.187Z,4.00
2018-10-15T03:48:53.164Z,4.00
2018-10-15T03:49:53.140Z,4.00
2018-10-15T03:50:53.117Z,4.00
2018-10-15T03:51:53.093Z,4.00
2018-10-15T03:52:53.070Z,4.00
2018-10-15T03:53:53.048Z,4.00
2018-10-15T03:54:53.021Z,4.00
2018-10-15T03:55:52.996Z,4.00
2018-10-15T03:56:52.972Z,4.00
2018-10-15T03:57:52.953Z,4.00
2018-10-15T03:58:52.925Z,4.00
2018-10-15T03:59:52.901Z,4.00
2018-10-15T04:00:52.877Z,4.00
2018-10-15T04:01:52.853Z,4.00
2018-10-15T04:02:52.829Z,4.00
2018-10-15T04:03:52.806Z,4.00
2018-10-15T04:04:52.781Z,4.00
2018-10-15T04:05:52.758Z,4.00
2018-10-15T04:06:52.734Z,4.00
2018-10-15T04:07:52.709Z,4.00
2018-10-15T04:08:52.686Z,4.00
2018-10-15T04:09:52.661Z,4.00
2018-10-15T04:10:52.642Z,4.00
2018-10-15T04:11:52.613Z,4.00
2018-10-15T04:12:52.590Z,4.00
2018-10-15T04:13:52.568Z,4.00
2018-10-15T04:14:52.545Z,4.00
2018-10-15T04:15:52.517Z,4.00
2018-10-15T04:16:52.493Z,0.00
2018-10-15T04:17:52.470Z,4.00
2018-10-15T04:18:52.446Z,4.00
2018-10-15T04:19:52.421Z,4.00
2018-10-15T04:20:52.397Z,0.00
2018-10-15T04:21:52.374Z,4.00
2018-10-15T04:22:52.350Z,4.00
2018-10-15T04:23:52.327Z,4.00
2018-10-15T04:24:52.302Z,0.00
2018-10-15T04:25:52.278Z,4.00
2018-10-15T04:26:52.256Z,4.00
2018-10-15T04:27:52.230Z,4.00
2018-10-15T04:28:52.205Z,4.00
2018-10-15T04:29:52.183Z,4.00
2018-10-15T04:30:52.161Z,4.00
2018-10-15T04:31:52.133Z,4.00
2018-10-15T04:32:52.111Z,4.00
2018-10-15T04:33:52.086Z,4.00
2018-10-15T04:34:52.063Z,4.00
2018-10-15T04:35:52.042Z,4.00
2018-10-15T04:36:52.015Z,4.00
2018-10-15T04:37:52.045Z,4.00
2018-10-15T04:38:51.968Z,4.00
2018-10-15T04:39:51.949Z,4.00
2018-10-15T04:40:51.918Z,4.00
2018-10-15T04:41:51.895Z,4.00
2018-10-15T04:42:51.871Z,4.00
2018-10-15T04:43:51.847Z,0.00
2018-10-15T04:44:51.823Z,0.00
2018-10-15T04:45:51.799Z,0.00
2018-10-15T04:46:51.775Z,4.00
2018-10-15T04:47:51.750Z,4.00
2018-10-15T04:48:51.783Z,4.00
2018-10-15T04:49:51.720Z,4.00
2018-10-15T04:50:51.679Z,4.00
2018-10-15T04:51:51.654Z,4.00
2018-10-15T04:52:51.631Z,4.00
2018-10-15T04:53:51.607Z,4.00
2018-10-15T04:54:51.585Z,4.00
2018-10-15T04:55:51.560Z,4.00
2018-10-15T04:56:51.537Z,4.00
2018-10-15T04:57:51.522Z,0.00
2018-10-15T04:58:51.490Z,4.00
2018-10-15T04:59:51.463Z,4.00
2018-10-15T05:00:51.440Z,4.00
2018-10-15T05:01:51.416Z,0.00
2018-10-15T05:02:51.393Z,4.00
2018-10-15T05:03:51.367Z,4.00
2018-10-15T05:04:51.343Z,4.00
2018-10-15T05:05:51.320Z,4.00
2018-10-15T05:06:51.296Z,4.00
2018-10-15T05:07:51.273Z,0.00
2018-10-15T05:08:51.249Z,0.00
2018-10-15T05:09:51.235Z,0.00
2018-10-15T05:10:51.202Z,0.00
2018-10-15T05:11:51.176Z,0.00
2018-10-15T05:12:51.152Z,0.00
2018-10-15T05:13:51.128Z,0.00
2018-10-15T05:14:51.105Z,0.00
2018-10-15T05:15:51.080Z,0.00
2018-10-15T05:16:51.058Z,4.00
2018-10-15T05:17:51.033Z,4.00
2018-10-15T05:18:51.010Z,4.00
2018-10-15T05:19:50.984Z,4.00
2018-10-15T05:20:50.987Z,4.00
2018-10-15T05:21:52.439Z,4.00
2018-10-15T05:22:50.918Z,8.00
2018-10-15T05:23:50.890Z,4.00
2018-10-15T05:24:50.866Z,8.00
2018-10-15T05:25:50.841Z,8.00
2018-10-15T05:26:50.818Z,12.00
2018-10-15T05:27:50.796Z,12.00
2018-10-15T05:28:50.771Z,16.00
2018-10-15T05:29:50.746Z,20.00
2018-10-15T05:30:50.843Z,24.00
2018-10-15T05:31:50.702Z,28.00
2018-10-15T05:32:50.674Z,32.00
2018-10-15T05:33:50.651Z,40.00
2018-10-15T05:34:50.627Z,44.00
2018-10-15T05:35:50.604Z,52.00
2018-10-15T05:36:50.670Z,64.00
2018-10-15T05:37:50.557Z,72.00
2018-10-15T05:38:50.532Z,84.00
2018-10-15T05:39:50.509Z,92.00
2018-10-15T05:40:50.484Z,108.00
2018-10-15T05:41:50.462Z,120.00
2018-10-15T05:42:50.437Z,140.00
2018-10-15T05:43:50.413Z,160.00
2018-10-15T05:44:50.389Z,172.00
2018-10-15T05:45:50.366Z,192.00
2018-10-15T05:46:50.376Z,208.00
2018-10-15T05:47:50.319Z,228.00
2018-10-15T05:48:50.294Z,252.00
2018-10-15T05:49:50.270Z,272.00
2018-10-15T05:50:50.248Z,296.00
2018-10-15T05:51:50.228Z,316.00
2018-10-15T05:52:50.202Z,340.00
2018-10-15T05:53:50.175Z,364.00
2018-10-15T05:54:50.152Z,392.00
2018-10-15T05:55:50.132Z,416.00
2018-10-15T05:56:50.104Z,444.00
2018-10-15T05:57:50.083Z,472.00
2018-10-15T05:58:50.058Z,496.00
2018-10-15T05:59:50.033Z,520.00
2018-10-15T06:00:50.011Z,548.00
2018-10-15T06:01:49.986Z,576.00
2018-10-15T06:02:49.962Z,600.00
2018-10-15T06:03:49.940Z,624.00
2018-10-15T06:04:49.916Z,652.00
2018-10-15T06:05:49.892Z,680.00
2018-10-15T06:06:49.867Z,708.00
2018-10-15T06:07:49.844Z,732.00
2018-10-15T06:08:49.820Z,760.00
2018-10-15T06:09:49.803Z,784.00
2018-10-15T06:10:49.772Z,808.00
2018-10-15T06:11:49.749Z,832.00
2018-10-15T06:12:49.740Z,860.00
2018-10-15T06:13:49.700Z,884.00
2018-10-15T06:14:49.677Z,904.00
2018-10-15T06:15:49.653Z,932.00
2018-10-15T06:16:49.630Z,952.00
2018-10-15T06:17:49.606Z,980.00
2018-10-15T06:18:49.583Z,1000.00
2018-10-15T06:19:49.559Z,1020.00
2018-10-15T06:20:49.537Z,1044.00
2018-10-15T06:21:49.511Z,1068.00
2018-10-15T06:22:49.561Z,1092.00
2018-10-15T06:23:49.466Z,1116.00
2018-10-15T06:24:49.440Z,1128.00
2018-10-15T06:25:49.417Z,1152.00
2018-10-15T06:26:49.393Z,1176.00
2018-10-15T06:27:49.369Z,1192.00
2018-10-15T06:28:49.345Z,1212.00
2018-10-15T06:29:49.322Z,1232.00
2018-10-15T06:30:50.050Z,1272.00
2018-10-15T06:31:49.275Z,1348.00
2018-10-15T06:32:49.251Z,1424.00
2018-10-15T06:33:49.306Z,1464.00
2018-10-15T06:34:49.205Z,1488.00
2018-10-15T06:35:49.180Z,1516.00
2018-10-15T06:36:49.157Z,1548.00
2018-10-15T06:37:49.133Z,1572.00
2018-10-15T06:38:49.110Z,1588.00
2018-10-15T06:39:49.085Z,1608.00
2018-10-15T06:40:49.062Z,1632.00
2018-10-15T06:41:52.043Z,1648.00
2018-10-15T06:42:49.016Z,1672.00
2018-10-15T06:43:49.044Z,1692.00
2018-10-15T06:44:48.969Z,1712.00
2018-10-15T06:45:48.996Z,1732.00
2018-10-15T06:46:48.921Z,1752.00
2018-10-15T06:47:48.897Z,1772.00
2018-10-15T06:48:48.889Z,1792.00
2018-10-15T06:49:48.851Z,1808.00
2018-10-15T06:50:48.828Z,1832.00
2018-10-15T06:51:48.803Z,1852.00
2018-10-15T06:52:48.781Z,1868.00
2018-10-15T06:53:48.886Z,1892.00
2018-10-15T06:54:48.735Z,1912.00
2018-10-15T06:55:48.710Z,1932.00
2018-10-15T06:56:48.688Z,1944.00
2018-10-15T06:57:48.665Z,1948.00
2018-10-15T06:58:48.644Z,1960.00
2018-10-15T06:59:48.618Z,1980.00
2018-10-15T07:00:48.595Z,2012.00
2018-10-15T07:01:48.570Z,2004.00
2018-10-15T07:02:48.549Z,2016.00
2018-10-15T07:03:48.524Z,2056.00
2018-10-15T07:04:48.501Z,2092.00
2018-10-15T07:05:48.477Z,2112.00
2018-10-15T07:06:48.456Z,2132.00
2018-10-15T07:07:48.514Z,2148.00
2018-10-15T07:08:48.408Z,2184.00
2018-10-15T07:09:48.387Z,2180.00
2018-10-15T07:10:48.366Z,2196.00
2018-10-15T07:11:48.339Z,2212.00
2018-10-15T07:12:48.315Z,2232.00
2018-10-15T07:13:48.355Z,2248.00
2018-10-15T07:14:48.369Z,2256.00
2018-10-15T07:15:48.245Z,2276.00
2018-10-15T07:16:48.223Z,2292.00
2018-10-15T07:17:48.201Z,2312.00
2018-10-15T07:18:48.177Z,2332.00
2018-10-15T07:19:48.153Z,2336.00
2018-10-15T07:20:48.186Z,2344.00
2018-10-15T07:21:48.107Z,2356.00
2018-10-15T07:22:48.087Z,2368.00
2018-10-15T07:23:48.062Z,2376.00
2018-10-15T07:24:49.539Z,2392.00
2018-10-15T07:25:48.018Z,2408.00
2018-10-15T07:26:47.992Z,2420.00
2018-10-15T07:27:47.974Z,2432.00
2018-10-15T07:28:47.945Z,2436.00
2018-10-15T07:29:47.923Z,2452.00
2018-10-15T07:30:48.651Z,2472.00
2018-10-15T07:31:47.876Z,2476.00
2018-10-15T07:32:47.854Z,2484.00
2018-10-15T07:33:47.835Z,2504.00
2018-10-15T07:34:47.808Z,2520.00
2018-10-15T07:35:47.785Z,2528.00
2018-10-15T07:36:47.762Z,2548.00
2018-10-15T07:37:47.740Z,2564.00
2018-10-15T07:38:47.718Z,2576.00
2018-10-15T07:39:47.695Z,2576.00
2018-10-15T07:40:47.671Z,2580.00
2018-10-15T07:41:47.648Z,2596.00
2018-10-15T07:42:47.625Z,2616.00
2018-10-15T07:43:47.602Z,2628.00
2018-10-15T07:44:47.580Z,2640.00
2018-10-15T07:45:47.557Z,2644.00
2018-10-15T07:46:47.571Z,2652.00
2018-10-15T07:47:47.510Z,2664.00
2018-10-15T07:48:47.490Z,2668.00
2018-10-15T07:49:47.466Z,2680.00
2018-10-15T07:50:47.452Z,2696.00
2018-10-15T07:51:48.173Z,2704.00
2018-10-15T07:52:47.401Z,2716.00
2018-10-15T07:53:47.429Z,2724.00
2018-10-15T07:54:47.353Z,2736.00
2018-10-15T07:55:47.339Z,2744.00
2018-10-15T07:56:47.307Z,2756.00
2018-10-15T07:57:47.285Z,2764.00
2018-10-15T07:58:47.263Z,2772.00
2018-10-15T07:59:47.240Z,2784.00
2018-10-15T08:00:47.217Z,2788.00
2018-10-15T08:01:47.195Z,2800.00
2018-10-15T08:02:47.173Z,2796.00
2018-10-15T08:03:47.149Z,2816.00
2018-10-15T08:04:47.127Z,2820.00
2018-10-15T08:05:47.194Z,2824.00
2018-10-15T08:06:47.084Z,2832.00
2018-10-15T08:07:47.059Z,2840.00
2018-10-15T08:08:47.142Z,2856.00
2018-10-15T08:09:47.016Z,2860.00
2018-10-15T08:10:46.994Z,2872.00
2018-10-15T08:11:46.971Z,2868.00
2018-10-15T08:12:47.700Z,2908.00
2018-10-15T08:13:46.928Z,2928.00
2018-10-15T08:14:47.062Z,2900.00
2018-10-15T08:15:46.966Z,2920.00
2018-10-15T08:16:46.860Z,2900.00
2018-10-15T08:17:46.840Z,2908.00
2018-10-15T08:18:46.817Z,2908.00
2018-10-15T08:19:46.794Z,2904.00
2018-10-15T08:20:46.837Z,2920.00
2018-10-15T08:21:46.748Z,2920.00
2018-10-15T08:22:46.733Z,2928.00
2018-10-15T08:23:46.707Z,2936.00
2018-10-15T08:24:46.687Z,2980.00
2018-10-15T08:25:46.661Z,2968.00
2018-10-15T08:26:46.638Z,2944.00
2018-10-15T08:27:46.661Z,2948.00
2018-10-15T08:28:46.593Z,2960.00
2018-10-15T08:29:46.571Z,2948.00
2018-10-15T08:30:46.549Z,2952.00
2018-10-15T08:31:46.526Z,2956.00
2018-10-15T08:32:46.506Z,2964.00
2018-10-15T08:33:46.484Z,2968.00
2018-10-15T08:34:46.507Z,2976.00
2018-10-15T08:35:46.437Z,2964.00
2018-10-15T08:36:46.416Z,2972.00
2018-10-15T08:37:46.396Z,2980.00
2018-10-15T08:38:46.373Z,2980.00
2018-10-15T08:39:46.350Z,2972.00
2018-10-15T08:40:46.328Z,2980.00
2018-10-15T08:41:46.380Z,2976.00
2018-10-15T08:42:46.284Z,2984.00
2018-10-15T08:43:46.262Z,2980.00
2018-10-15T08:44:46.241Z,2984.00
2018-10-15T08:45:46.256Z,3020.00
2018-10-15T08:46:46.197Z,2996.00
2018-10-15T08:47:46.180Z,2988.00
2018-10-15T08:48:46.153Z,3020.00
2018-10-15T08:49:46.187Z,3004.00
2018-10-15T08:50:46.129Z,3012.00
2018-10-15T08:51:46.088Z,2996.00
2018-10-15T08:52:46.135Z,2992.00
2018-10-15T08:53:46.047Z,3008.00
2018-10-15T08:54:46.026Z,3012.00
2018-10-15T08:55:46.028Z,3004.00
2018-10-15T08:56:45.995Z,3012.00
2018-10-15T08:57:45.959Z,3012.00
2018-10-15T08:58:45.937Z,3020.00
2018-10-15T08:59:45.914Z,3024.00
2018-10-15T09:00:45.900Z,3076.00
2018-10-15T09:01:45.947Z,3044.00
2018-10-15T09:02:45.874Z,3016.00
2018-10-15T09:03:45.866Z,3016.00
2018-10-15T09:04:45.816Z,3020.00
2018-10-15T09:05:45.786Z,3028.00
2018-10-15T09:06:45.773Z,3012.00
2018-10-15T09:07:45.972Z,3036.00
2018-10-15T09:08:45.909Z,3024.00
2018-10-15T09:09:45.728Z,3032.00
2018-10-15T09:10:45.738Z,3016.00
2018-10-15T09:11:45.658Z,3032.00
2018-10-15T09:12:45.793Z,3024.00
2018-10-15T09:13:45.616Z,3028.00
2018-10-15T09:14:45.715Z,3044.00
2018-10-15T09:15:45.575Z,3036.00
2018-10-15T09:16:45.550Z,3036.00
2018-10-15T09:17:45.583Z,3032.00
2018-10-15T09:18:45.512Z,3024.00
2018-10-15T09:19:45.539Z,3028.00
2018-10-15T09:20:45.511Z,3040.00
2018-10-15T09:21:45.470Z,3024.00
2018-10-15T09:22:46.925Z,3024.00
2018-10-15T09:23:45.422Z,3044.00
2018-10-15T09:24:45.389Z,3044.00
2018-10-15T09:25:45.398Z,3032.00
2018-10-15T09:26:45.472Z,3044.00
2018-10-15T09:27:45.397Z,3024.00
2018-10-15T09:28:45.298Z,3024.00
2018-10-15T09:29:45.284Z,3028.00
2018-10-15T09:30:45.307Z,3036.00
2018-10-15T09:31:45.232Z,3040.00
2018-10-15T09:32:45.230Z,3020.00
2018-10-15T09:33:45.191Z,3020.00
2018-10-15T09:34:45.229Z,3024.00
2018-10-15T09:35:45.149Z,3024.00
2018-10-15T09:36:45.150Z,3020.00
2018-10-15T09:37:45.167Z,3024.00
2018-10-15T09:38:45.242Z,3036.00
2018-10-15T09:39:45.064Z,3028.00
2018-10-15T09:40:45.064Z,3028.00
2018-10-15T09:41:45.023Z,3040.00
2018-10-15T09:42:45.066Z,3016.00
2018-10-15T09:43:44.984Z,3020.00
2018-10-15T09:44:45.759Z,3044.00
2018-10-15T09:45:45.095Z,3028.00
2018-10-15T09:46:44.981Z,3036.00
2018-10-15T09:47:44.897Z,3040.00
2018-10-15T09:48:44.969Z,3040.00
2018-10-15T09:49:44.887Z,3044.00
2018-10-15T09:50:44.934Z,3064.00
2018-10-15T09:51:44.814Z,3072.00
2018-10-15T09:52:44.830Z,3056.00
2018-10-15T09:53:44.773Z,3044.00
2018-10-15T09:54:44.759Z,3048.00
2018-10-15T09:55:44.730Z,3056.00
2018-10-15T09:56:44.730Z,3036.00
2018-10-15T09:57:44.694Z,3048.00
2018-10-15T09:58:44.725Z,3064.00
2018-10-15T09:59:44.650Z,3040.00
2018-10-15T10:00:44.649Z,3040.00
2018-10-15T10:01:44.649Z,3036.00
2018-10-15T10:02:44.619Z,3040.00
2018-10-15T10:03:44.567Z,3036.00
2018-10-15T10:04:44.555Z,3028.00
2018-10-15T10:05:44.525Z,3008.00
2018-10-15T10:06:46.027Z,3008.00
2018-10-15T10:07:44.519Z,3016.00
2018-10-15T10:08:44.494Z,3016.00
2018-10-15T10:09:44.446Z,3020.00
2018-10-15T10:10:44.458Z,2992.00
2018-10-15T10:11:44.403Z,2992.00
2018-10-15T10:12:44.419Z,2968.00
2018-10-15T10:13:44.364Z,2980.00
2018-10-15T10:14:44.397Z,2980.00
2018-10-15T10:15:44.320Z,2980.00
2018-10-15T10:16:44.307Z,2984.00
2018-10-15T10:17:44.554Z,2980.00
2018-10-15T10:18:44.268Z,2996.00
2018-10-15T10:19:44.239Z,2992.00
2018-10-15T10:20:44.252Z,3008.00
2018-10-15T10:21:44.235Z,2976.00
2018-10-15T10:22:44.216Z,2972.00
2018-10-15T10:23:50.188Z,2992.00
2018-10-15T10:24:44.240Z,2984.00
2018-10-15T10:25:44.150Z,2952.00
2018-10-15T10:26:44.123Z,2972.00
2018-10-15T10:27:44.078Z,2964.00
2018-10-15T10:28:44.329Z,2972.00
2018-10-15T10:29:44.885Z,2972.00
2018-10-15T10:30:44.044Z,2968.00
2018-10-15T10:31:43.999Z,2968.00
2018-10-15T10:32:43.996Z,2976.00
2018-10-15T10:33:43.961Z,2976.00
2018-10-15T10:34:43.956Z,2972.00
2018-10-15T10:35:43.930Z,2960.00
2018-10-15T10:36:43.945Z,2956.00
2018-10-15T10:37:43.881Z,2960.00
2018-10-15T10:38:43.870Z,2988.00
2018-10-15T10:39:43.870Z,2960.00
2018-10-15T10:40:43.822Z,2932.00
2018-10-15T10:41:43.945Z,2988.00
2018-10-15T10:42:43.783Z,2992.00
2018-10-15T10:43:43.761Z,2980.00
2018-10-15T10:44:43.762Z,2948.00
2018-10-15T10:45:45.321Z,2968.00
2018-10-15T10:46:43.703Z,2960.00
2018-10-15T10:47:43.685Z,2940.00
2018-10-15T10:48:43.664Z,2952.00
2018-10-15T10:49:43.645Z,2932.00
2018-10-15T10:50:43.625Z,2948.00
2018-10-15T10:51:45.857Z,2932.00
2018-10-15T10:52:43.585Z,2912.00
2018-10-15T10:53:43.568Z,2952.00
2018-10-15T10:54:43.548Z,2932.00
2018-10-15T10:55:43.528Z,2936.00
2018-10-15T10:56:43.508Z,2908.00
2018-10-15T10:57:44.243Z,2896.00
2018-10-15T10:58:43.542Z,2916.00
2018-10-15T10:59:43.450Z,2916.00
2018-10-15T11:00:43.430Z,2900.00
2018-10-15T11:01:43.412Z,2940.00
2018-10-15T11:02:43.458Z,2920.00
2018-10-15T11:03:43.372Z,3000.00
2018-10-15T11:04:43.353Z,2912.00
2018-10-15T11:05:43.453Z,2912.00
2018-10-15T11:06:43.314Z,2912.00
2018-10-15T11:07:43.294Z,2904.00
2018-10-15T11:08:43.275Z,2952.00
2018-10-15T11:09:43.255Z,2940.00
2018-10-15T11:10:43.236Z,2916.00
2018-10-15T11:11:43.219Z,2908.00
2018-10-15T11:12:43.249Z,2928.00
2018-10-15T11:13:43.180Z,2884.00
2018-10-15T11:14:43.161Z,2900.00
2018-10-15T11:15:43.139Z,2896.00
2018-10-15T11:16:43.121Z,2880.00
2018-10-15T11:17:43.105Z,2916.00
2018-10-15T11:18:43.157Z,2876.00
2018-10-15T11:19:43.064Z,2884.00
2018-10-15T11:20:43.045Z,2872.00
2018-10-15T11:21:43.027Z,2888.00
2018-10-15T11:22:43.011Z,2880.00
2018-10-15T11:23:42.987Z,2884.00
2018-10-15T11:24:42.968Z,2868.00
2018-10-15T11:25:42.991Z,2876.00
2018-10-15T11:26:42.931Z,2876.00
2018-10-15T11:27:42.911Z,2864.00
2018-10-15T11:28:42.892Z,2880.00
2018-10-15T11:29:42.936Z,2868.00
2018-10-15T11:30:42.855Z,2892.00
2018-10-15T11:31:42.835Z,2872.00
2018-10-15T11:32:42.816Z,2892.00
2018-10-15T11:33:42.797Z,2868.00
2018-10-15T11:34:42.859Z,2868.00
2018-10-15T11:35:42.767Z,2868.00
2018-10-15T11:36:42.741Z,2888.00
2018-10-15T11:37:42.725Z,2848.00
2018-10-15T11:38:42.710Z,2872.00
2018-10-15T11:39:42.686Z,2836.00
2018-10-15T11:40:42.669Z,2872.00
2018-10-15T11:41:42.647Z,2836.00
2018-10-15T11:42:42.629Z,2912.00
2018-10-15T11:43:42.674Z,2844.00
2018-10-15T11:44:42.591Z,2844.00
2018-10-15T11:45:42.573Z,2852.00
2018-10-15T11:46:42.675Z,2824.00
2018-10-15T11:47:42.536Z,2844.00
2018-10-15T11:48:42.517Z,2868.00
2018-10-15T11:49:42.543Z,2840.00
2018-10-15T11:50:42.485Z,2816.00
2018-10-15T11:51:42.461Z,2828.00
2018-10-15T11:52:42.442Z,2808.00
2018-10-15T11:53:42.572Z,2832.00
2018-10-15T11:54:42.407Z,2812.00
2018-10-15T11:55:42.387Z,2816.00
2018-10-15T11:56:42.369Z,2800.00
2018-10-15T11:57:42.353Z,2844.00
2018-10-15T11:58:42.350Z,2800.00
2018-10-15T11:59:42.313Z,2812.00
2018-10-15T12:00:42.296Z,2812.00
2018-10-15T12:01:42.277Z,2808.00
2018-10-15T12:02:42.353Z,2800.00
2018-10-15T12:03:42.240Z,2792.00
2018-10-15T12:04:42.224Z,2796.00
2018-10-15T12:05:42.208Z,2804.00
2018-10-15T12:06:42.187Z,2820.00
2018-10-15T12:07:42.168Z,2796.00
2018-10-15T12:08:42.151Z,2808.00
2018-10-15T12:09:42.133Z,2788.00
2018-10-15T12:10:42.114Z,2784.00
2018-10-15T12:11:42.095Z,2788.00
2018-10-15T12:12:42.077Z,2780.00
2018-10-15T12:13:42.060Z,2792.00
2018-10-15T12:14:42.043Z,2788.00
2018-10-15T12:15:42.022Z,2792.00
2018-10-15T12:16:42.045Z,2808.00
2018-10-15T12:17:41.986Z,2804.00
2018-10-15T12:18:41.971Z,2772.00
2018-10-15T12:19:41.951Z,2804.00
2018-10-15T12:20:41.933Z,2776.00
2018-10-15T12:21:41.915Z,2788.00
2018-10-15T12:22:41.991Z,2792.00
2018-10-15T12:23:41.878Z,2780.00
2018-10-15T12:24:41.862Z,2788.00
2018-10-15T12:25:41.846Z,2776.00
2018-10-15T12:26:41.825Z,2800.00
2018-10-15T12:27:41.807Z,2804.00
2018-10-15T12:28:41.790Z,2792.00
2018-10-15T12:29:41.846Z,2780.00
2018-10-15T12:30:41.754Z,2780.00
2018-10-15T12:31:41.739Z,2784.00
2018-10-15T12:32:41.718Z,2788.00
2018-10-15T12:33:41.701Z,2780.00
2018-10-15T12:34:41.683Z,2776.00
2018-10-15T12:35:41.665Z,2780.00
2018-10-15T12:36:41.647Z,2792.00
2018-10-15T12:37:42.380Z,2796.00